Pagrindinis puslapis
METAR-TAF:

METAR-TAF

Oro uostai :

Arakažu, Sergipe, Brazilija

platuma: 10-59S, ilguma: 037-04W, Aukštis: 8 m

Dabartinis oras

Ataskaita buvo paskelbta 10 minutes, ne 03:00 UTC
Vėjas 4 kt iš Šiaurės
Temperatūra 27°C
Drėgmė 79%
Slėgis 1011 hPa
Matomumas 10 km arba daugiau
Mažai debesys ne aukštis 1700 ft
Išsisklaidę debesys ne aukštis 10000 ft

METAR: SBAR 210300Z 35004KT 9999 FEW017 SCT100 27/23 Q1011

Laikas: 00:10 (03:10 UTC)

Prognozė

Ataskaita buvo paskelbta 5 valandos ir 10 minutes, ne 22:00 UTC
Prognozė galioja nuo 21 metu 00 UTC su 21 metu 24 UTC
Vėjas 8 kt iš Rytų/Pietryčių
Matomumas 10 km arba daugiau
Išsisklaidę debesys ne aukštis 2000 ft

TAF: SBAR 202200Z 2100/2124 12008KT 9999 SCT020 TN25/2108Z TX30/2115Z RMK PED

Orai ataskaitas ir orų prognozės (METAR, TAF).

turimą stotys yra geltonos ir raudonos taškus žemėlapyje.

Perkelti pele per norėdami pamatyti stoties vardą.

Tada spustelėkite, norėdami matyti oro stebėjimo ir prognozės.

Norėdami pakeisti žemėlapį: spustelėkite ant žalios mygtukų su juodo kryžiaus žemyn,; žalią mygtuką su brūkšneliu, jei norite nutolinti; arba žalių rodyklių gretimoms žemėlapius.


METAR-TAF: